Terminal Aerodrome Forecast
Issued by NWS Melbourne, FL

Home | Current Version | Previous Version | Text Only | Print | Product List | Glossary On
Versions: 1 2 3 4 5 6 7 8 9 10 11 12 13 14 15 16 17 18 19 20 21
000
FTUS42 KMLB 012331
TAFVRB
TAF
KVRB 012331Z 0200/0224 10008KT P6SM FEW080 SCT250
     FM020300 16003KT P6SM SCT250
     FM021300 20004KT P6SM FEW025 SCT250
     FM021800 12006KT P6SM VCSH SCT035 BKN250=

USA.gov is the U.S. government's official web portal to all federal, state and local government web resources and services.